Time;durP1;ratioP1;P1;durP2;ratioP2;P2;SDS_P1;SDS_P2;PMS_P1;PMS_P2;Temp;Humidity;BMP_temperature;BMP_pressure;BME280_temperature;BME280_humidity;BME280_pressure;Samples;Min_cycle;Max_cycle;Signal;HPM_P1;HPM_P2
2024/03/13 00:00:04;;;;;;;3.50;3.20;;;15.90;60.50;;;;;;5052720;28;20175;-63
2024/03/13 00:02:34;;;;;;;4.53;4.13;;;15.90;60.50;;;;;;5052533;28;20236;-62
2024/03/13 00:05:00;;;;;;;3.90;3.60;;;15.90;60.50;;;;;;5052077;28;20175;-62
2024/03/13 00:07:26;;;;;;;3.60;3.30;;;15.90;60.50;;;;;;5052459;28;20587;-62
2024/03/13 00:09:52;;;;;;;3.70;3.40;;;15.90;60.50;;;;;;5052650;28;20254;-63
2024/03/13 00:12:18;;;;;;;4.20;3.80;;;15.90;60.50;;;;;;5051311;28;20179;-63
2024/03/13 00:14:50;;;;;;;3.53;3.22;;;15.90;60.60;;;;;;5052254;28;20174;-62
2024/03/13 00:17:22;;;;;;;4.20;3.78;;;15.90;60.60;;;;;;5052164;28;20994;-62
2024/03/13 00:19:48;;;;;;;4.10;3.70;;;15.90;60.60;;;;;;5052070;28;20179;-62
2024/03/13 00:22:18;;;;;;;4.20;3.85;;;15.90;60.70;;;;;;5052387;28;20539;-63
2024/03/13 00:25:10;;;;;;;3.50;3.20;;;15.90;60.60;;;;;;5051931;28;20181;-62
2024/03/13 00:27:37;;;;;;;4.22;3.85;;;15.90;60.60;;;;;;5052504;28;20229;-62
2024/03/13 00:30:02;;;;;;;4.18;3.78;;;15.90;60.70;;;;;;5052300;28;20187;-62
2024/03/13 00:32:28;;;;;;;3.47;3.17;;;15.90;60.60;;;;;;5051605;28;20187;-61
2024/03/13 00:34:53;;;;;;;3.70;3.40;;;15.90;60.70;;;;;;5052334;28;20167;-63
2024/03/13 00:37:21;;;;;;;3.88;3.58;;;15.90;60.70;;;;;;5051830;28;20211;-63
2024/03/13 00:39:46;;;;;;;3.85;3.55;;;15.90;60.70;;;;;;5051491;28;20227;-62
2024/03/13 00:42:12;;;;;;;3.33;3.05;;;15.90;60.70;;;;;;5051770;28;20682;-63
2024/03/13 00:44:41;;;;;;;3.60;3.30;;;15.80;60.60;;;;;;5052141;28;20665;-62
2024/03/13 00:47:07;;;;;;;3.50;3.20;;;15.80;60.60;;;;;;5051317;28;20622;-62
2024/03/13 00:49:33;;;;;;;3.60;3.30;;;15.80;60.60;;;;;;5052087;28;20175;-62
2024/03/13 00:51:59;;;;;;;3.80;3.50;;;15.80;60.60;;;;;;5052026;28;20199;-62
2024/03/13 00:54:25;;;;;;;4.25;3.95;;;15.80;60.70;;;;;;5050886;28;20204;-62
2024/03/13 00:56:51;;;;;;;3.80;3.50;;;15.80;60.60;;;;;;5051944;28;20218;-62
2024/03/13 00:59:17;;;;;;;3.47;3.17;;;15.80;60.60;;;;;;5051557;28;20572;-63
2024/03/13 01:01:48;;;;;;;3.60;3.30;;;15.80;60.70;;;;;;5051244;28;20182;-62
2024/03/13 01:04:14;;;;;;;3.50;3.20;;;15.80;60.70;;;;;;5051612;28;20179;-62
2024/03/13 01:06:40;;;;;;;3.45;3.15;;;15.80;60.80;;;;;;5051898;28;20202;-62
2024/03/13 01:09:06;;;;;;;3.30;3.10;;;15.80;60.80;;;;;;5051169;28;20587;-62
2024/03/13 01:11:31;;;;;;;3.70;3.40;;;15.80;60.80;;;;;;5050244;28;20179;-63
2024/03/13 01:13:57;;;;;;;3.78;3.42;;;15.80;60.70;;;;;;5050895;28;20633;-62
2024/03/13 01:16:23;;;;;;;3.33;3.05;;;15.80;60.70;;;;;;5051416;28;20202;-62
2024/03/13 01:18:49;;;;;;;3.30;3.03;;;15.80;60.80;;;;;;5051829;28;20195;-62
2024/03/13 01:21:14;;;;;;;3.33;3.03;;;15.80;60.80;;;;;;5050829;28;20226;-62
2024/03/13 01:23:40;;;;;;;3.72;3.42;;;15.80;60.80;;;;;;5051633;28;20592;-62
2024/03/13 01:26:08;;;;;;;3.25;2.95;;;15.80;60.80;;;;;;5055533;28;20207;-62
2024/03/13 01:28:36;;;;;;;3.83;3.53;;;15.80;60.80;;;;;;5055328;28;20182;-62
2024/03/13 01:31:08;;;;;;;3.17;2.88;;;15.80;60.90;;;;;;5055821;28;20195;-62
2024/03/13 01:33:34;;;;;;;3.53;3.22;;;15.80;60.90;;;;;;5055893;28;20189;-62
2024/03/13 01:36:00;;;;;;;3.53;3.22;;;15.80;60.90;;;;;;5054877;28;20520;-63
2024/03/13 01:38:26;;;;;;;3.47;3.17;;;15.80;60.90;;;;;;5055259;28;20645;-62
2024/03/13 01:55:04;;;;;;;3.00;2.80;;;15.70;60.90;;;;;;5054538;28;20186;-62
2024/03/13 01:57:31;;;;;;;3.10;2.90;;;15.80;60.90;;;;;;5053070;28;20206;-63
2024/03/13 02:02:41;;;;;;;3.00;2.80;;;15.70;60.90;;;;;;5055189;28;20174;-62
2024/03/13 02:05:07;;;;;;;3.00;2.70;;;15.70;60.90;;;;;;5054387;28;20183;-62
2024/03/13 02:07:32;;;;;;;3.17;2.97;;;15.70;60.90;;;;;;5054892;28;20545;-62
2024/03/13 02:09:59;;;;;;;3.42;3.13;;;15.70;60.90;;;;;;5053698;28;20190;-62
2024/03/13 02:12:26;;;;;;;3.10;2.83;;;15.70;60.90;;;;;;5053183;28;20198;-62
2024/03/13 02:14:52;;;;;;;2.90;2.70;;;15.70;61.00;;;;;;5054985;28;20185;-61
2024/03/13 02:17:18;;;;;;;3.15;2.95;;;15.70;61.00;;;;;;5053813;28;20689;-62
2024/03/13 02:19:43;;;;;;;2.70;2.50;;;15.70;61.00;;;;;;5055040;28;20183;-62
2024/03/13 02:22:09;;;;;;;3.03;2.80;;;15.70;61.00;;;;;;5053274;28;20171;-63
2024/03/13 02:24:35;;;;;;;3.10;2.80;;;15.70;61.00;;;;;;5054192;28;20262;-62
2024/03/13 02:27:00;;;;;;;3.05;2.85;;;15.70;61.00;;;;;;5054910;28;20651;-62
2024/03/13 02:29:26;;;;;;;3.22;2.92;;;15.70;61.00;;;;;;5054584;28;20630;-62
2024/03/13 02:31:51;;;;;;;3.03;2.83;;;15.70;61.00;;;;;;5054158;28;20248;-62
2024/03/13 02:34:18;;;;;;;2.75;2.55;;;15.70;61.00;;;;;;5054344;28;20171;-65
2024/03/13 02:36:43;;;;;;;3.22;2.92;;;15.70;61.10;;;;;;5053468;28;20207;-63
2024/03/13 02:39:09;;;;;;;3.05;2.85;;;15.70;61.10;;;;;;5053161;28;20175;-63
2024/03/13 02:41:34;;;;;;;2.70;2.50;;;15.60;61.00;;;;;;5054597;28;20236;-63
2024/03/13 02:44:00;;;;;;;2.65;2.45;;;15.60;61.00;;;;;;5054488;28;20168;-63
2024/03/13 02:46:25;;;;;;;2.85;2.65;;;15.60;61.00;;;;;;5053419;28;20171;-63
2024/03/13 02:48:51;;;;;;;2.53;2.33;;;15.60;61.00;;;;;;5054220;28;20248;-62
2024/03/13 02:51:17;;;;;;;2.92;2.72;;;15.60;61.00;;;;;;5053935;28;20176;-62
2024/03/13 02:53:42;;;;;;;2.80;2.60;;;15.60;61.00;;;;;;5053374;28;20194;-62
2024/03/13 02:56:08;;;;;;;2.95;2.75;;;15.60;61.00;;;;;;5053959;28;20220;-63
2024/03/13 02:58:35;;;;;;;2.88;2.67;;;15.60;61.00;;;;;;5054320;28;20261;-63
2024/03/13 03:01:01;;;;;;;2.67;2.47;;;15.60;61.00;;;;;;5053419;28;20198;-63
2024/03/13 03:03:30;;;;;;;3.00;2.80;;;15.60;61.10;;;;;;5053816;28;20175;-62
2024/03/13 03:06:01;;;;;;;2.90;2.70;;;15.60;61.10;;;;;;5053857;28;20541;-62
2024/03/13 03:08:32;;;;;;;2.90;2.70;;;15.60;61.10;;;;;;5052929;28;20188;-62
2024/03/13 03:10:57;;;;;;;2.83;2.55;;;15.60;61.10;;;;;;5054012;28;20175;-63
2024/03/13 03:13:23;;;;;;;3.13;2.80;;;15.60;61.10;;;;;;5053551;28;20202;-62
2024/03/13 03:15:48;;;;;;;2.50;2.25;;;15.60;61.10;;;;;;5053342;28;20538;-62
2024/03/13 03:18:17;;;;;;;3.42;2.70;;;15.60;61.10;;;;;;5053316;28;20571;-63
2024/03/13 03:20:45;;;;;;;2.88;2.63;;;15.60;61.10;;;;;;5052926;28;20202;-62
2024/03/13 03:23:11;;;;;;;2.90;2.70;;;15.60;61.20;;;;;;5053403;28;20187;-62
2024/03/13 03:25:37;;;;;;;2.72;2.53;;;15.60;61.20;;;;;;5053721;28;20175;-62
2024/03/13 03:28:03;;;;;;;2.90;2.70;;;15.60;61.20;;;;;;5052772;28;20656;-63
2024/03/13 03:30:30;;;;;;;2.88;2.60;;;15.60;61.20;;;;;;5053336;28;20264;-62
2024/03/13 03:32:56;;;;;;;2.72;2.53;;;15.60;61.20;;;;;;5053381;28;20171;-62
2024/03/13 03:35:21;;;;;;;2.95;2.72;;;15.60;61.20;;;;;;5052375;28;20248;-63
2024/03/13 03:37:47;;;;;;;2.97;2.78;;;15.60;61.20;;;;;;5053472;28;20304;-63
2024/03/13 03:40:16;;;;;;;3.05;2.75;;;15.60;61.30;;;;;;5052884;28;20223;-64
2024/03/13 03:42:42;;;;;;;2.50;2.33;;;15.60;61.20;;;;;;5052696;28;20551;-63
2024/03/13 03:45:08;;;;;;;2.60;2.45;;;15.60;61.30;;;;;;5053067;28;20657;-62
2024/03/13 03:47:34;;;;;;;2.75;2.55;;;15.60;61.30;;;;;;5053031;28;20178;-63
2024/03/13 03:50:00;;;;;;;2.92;2.70;;;15.60;61.20;;;;;;5052249;28;20178;-63
2024/03/13 03:52:25;;;;;;;2.67;2.47;;;15.60;61.20;;;;;;5052639;28;20217;-62
2024/03/13 03:54:51;;;;;;;2.92;2.65;;;15.60;61.30;;;;;;5053166;28;20183;-62
2024/03/13 03:57:16;;;;;;;2.65;2.45;;;15.60;61.30;;;;;;5051972;28;20202;-63
2024/03/13 03:59:42;;;;;;;2.95;2.58;;;15.50;61.20;;;;;;5053079;28;20175;-63
2024/03/13 04:02:07;;;;;;;2.88;2.67;;;15.50;61.30;;;;;;5052749;28;20179;-63
2024/03/13 04:04:33;;;;;;;2.70;2.50;;;15.60;61.30;;;;;;5051958;28;20163;-63
2024/03/13 04:06:58;;;;;;;2.75;2.55;;;15.60;61.30;;;;;;5052997;28;20167;-62
2024/03/13 04:09:24;;;;;;;2.55;2.35;;;15.60;61.30;;;;;;5052539;28;20172;-63
2024/03/13 04:11:52;;;;;;;2.33;2.22;;;15.50;61.30;;;;;;5052028;28;20608;-63
2024/03/13 04:14:18;;;;;;;3.25;2.60;;;15.50;61.30;;;;;;5052485;28;20225;-62
2024/03/13 04:16:44;;;;;;;2.58;2.38;;;15.60;61.30;;;;;;5052037;28;20211;-62
2024/03/13 04:19:13;;;;;;;2.72;2.53;;;15.50;61.30;;;;;;5052182;28;20658;-62
2024/03/13 04:21:38;;;;;;;2.75;2.40;;;15.50;61.30;;;;;;5052495;28;20179;-63
2024/03/13 04:24:07;;;;;;;2.80;2.60;;;15.50;61.30;;;;;;5051613;28;20179;-62
2024/03/13 04:26:41;;;;;;;2.60;2.40;;;15.50;61.30;;;;;;5052323;28;20175;-62
2024/03/13 04:29:07;;;;;;;2.80;2.60;;;15.50;61.30;;;;;;5052269;28;20746;-62
2024/03/13 04:31:37;;;;;;;2.78;2.58;;;15.50;61.30;;;;;;5051389;28;20183;-62
2024/03/13 04:34:04;;;;;;;2.67;2.47;;;15.50;61.30;;;;;;5052450;28;20187;-63
2024/03/13 04:36:32;;;;;;;3.50;2.65;;;15.50;61.30;;;;;;5052130;28;20267;-64
2024/03/13 04:38:57;;;;;;;2.70;2.50;;;15.50;61.30;;;;;;5051574;28;20167;-64
2024/03/13 04:41:24;;;;;;;2.80;2.60;;;15.50;61.30;;;;;;5052050;28;20187;-64
2024/03/13 04:43:49;;;;;;;2.10;2.00;;;15.50;61.40;;;;;;5052374;28;20189;-63
2024/03/13 04:46:18;;;;;;;2.42;2.30;;;15.50;61.40;;;;;;5051133;28;20171;-63
2024/03/13 04:48:45;;;;;;;2.55;2.35;;;15.50;61.40;;;;;;5052481;28;20257;-62
2024/03/13 04:51:11;;;;;;;2.45;2.30;;;15.50;61.30;;;;;;5051996;28;20187;-62
2024/03/13 04:53:37;;;;;;;2.50;2.30;;;15.50;61.40;;;;;;5051426;28;20276;-63
2024/03/13 04:56:03;;;;;;;2.45;2.30;;;15.50;61.40;;;;;;5051864;28;20258;-64
2024/03/13 04:58:29;;;;;;;2.42;2.22;;;15.50;61.40;;;;;;5051370;28;20187;-63
2024/03/13 05:00:55;;;;;;;2.70;2.50;;;15.50;61.50;;;;;;5050801;28;20175;-63
2024/03/13 05:03:20;;;;;;;2.47;2.28;;;15.50;61.40;;;;;;5051814;28;20182;-64
2024/03/13 05:05:46;;;;;;;2.47;2.28;;;15.50;61.50;;;;;;5051781;28;20171;-63
2024/03/13 05:08:13;;;;;;;1.88;1.77;;;15.50;61.40;;;;;;5050705;28;20219;-64
2024/03/13 05:10:39;;;;;;;3.00;2.70;;;15.50;62.30;;;;;;5051878;28;20179;-63
2024/03/13 05:13:04;;;;;;;1.95;1.85;;;15.50;62.30;;;;;;5050921;28;20225;-63
2024/03/13 05:15:30;;;;;;;2.22;2.08;;;15.50;61.40;;;;;;5051379;28;20240;-63
2024/03/13 05:17:57;;;;;;;2.47;2.28;;;15.40;61.40;;;;;;5051732;28;20211;-63
2024/03/13 05:20:23;;;;;;;2.60;2.40;;;15.50;61.50;;;;;;5050773;28;20262;-63
2024/03/13 05:22:48;;;;;;;2.42;2.22;;;15.50;61.50;;;;;;5051690;28;20271;-63
2024/03/13 05:25:17;;;;;;;2.33;2.13;;;15.40;61.40;;;;;;5051235;28;20171;-63
2024/03/13 05:27:46;;;;;;;2.63;2.42;;;15.50;61.50;;;;;;5050916;28;20183;-62
2024/03/13 05:30:12;;;;;;;2.60;2.40;;;15.40;61.50;;;;;;5051413;28;20544;-63
2024/03/13 05:32:37;;;;;;;2.50;2.30;;;15.50;61.50;;;;;;5051782;28;20671;-63
2024/03/13 05:35:06;;;;;;;2.30;2.10;;;15.40;61.50;;;;;;5050939;28;20507;-63
2024/03/13 05:37:32;;;;;;;2.30;2.20;;;15.40;61.50;;;;;;5051244;28;20309;-63
2024/03/13 05:40:01;;;;;;;2.42;2.22;;;15.40;61.50;;;;;;5051371;28;20733;-63
2024/03/13 05:42:26;;;;;;;2.60;2.40;;;15.40;61.50;;;;;;5050993;28;20205;-63
2024/03/13 05:44:52;;;;;;;2.40;2.20;;;15.40;61.50;;;;;;5051328;28;20685;-63
2024/03/13 05:47:20;;;;;;;2.40;2.20;;;15.40;61.50;;;;;;5051270;28;20270;-63
2024/03/13 05:49:45;;;;;;;2.30;2.17;;;15.40;61.50;;;;;;5050778;28;20532;-63
2024/03/13 05:52:11;;;;;;;2.08;1.98;;;15.40;62.40;;;;;;5050999;28;20179;-63
2024/03/13 05:54:36;;;;;;;2.15;2.05;;;15.40;61.50;;;;;;5051501;28;20185;-63
2024/03/13 05:57:02;;;;;;;2.58;2.38;;;15.40;61.50;;;;;;5050426;28;20565;-63
2024/03/13 05:59:28;;;;;;;2.30;2.10;;;15.40;61.50;;;;;;5051333;28;20987;-62
2024/03/13 06:01:55;;;;;;;2.03;1.92;;;15.40;61.50;;;;;;5051215;28;20179;-63
2024/03/13 06:04:21;;;;;;;2.17;2.08;;;15.40;61.60;;;;;;5050406;28;20179;-63
2024/03/13 06:06:48;;;;;;;2.13;2.03;;;15.40;61.50;;;;;;5051319;28;20186;-62
2024/03/13 06:09:15;;;;;;;1.98;1.88;;;15.40;61.60;;;;;;5050589;28;20175;-63
2024/03/13 06:11:41;;;;;;;2.28;2.05;;;15.40;61.60;;;;;;5054146;28;20606;-63
2024/03/13 06:14:06;;;;;;;2.78;2.58;;;15.40;61.60;;;;;;5055073;28;20195;-63
2024/03/13 06:16:32;;;;;;;2.25;2.05;;;15.40;61.60;;;;;;5054003;28;20210;-63
2024/03/13 06:18:57;;;;;;;2.33;2.13;;;15.40;61.60;;;;;;5054946;28;20388;-62
2024/03/13 06:21:23;;;;;;;2.08;1.90;;;15.40;61.60;;;;;;5054791;28;20263;-63
2024/03/13 06:23:52;;;;;;;2.10;2.00;;;15.40;61.60;;;;;;5054172;28;20175;-63
2024/03/13 06:26:17;;;;;;;2.05;1.95;;;15.40;61.50;;;;;;5054360;28;20664;-63
2024/03/13 06:31:29;;;;;;;2.28;2.15;;;15.50;61.50;;;;;;5053635;28;20186;-62
2024/03/13 06:33:55;;;;;;;2.03;1.92;;;15.50;61.50;;;;;;5054633;28;20167;-63
2024/03/13 06:36:21;;;;;;;2.15;1.95;;;15.50;61.40;;;;;;5054189;28;20183;-63
2024/03/13 06:38:47;;;;;;;2.85;2.40;;;15.50;61.40;;;;;;5053756;28;20171;-62
2024/03/13 06:41:13;;;;;;;1.70;1.60;;;15.50;61.40;;;;;;5053980;28;20252;-63
2024/03/13 06:43:40;;;;;;;1.80;1.70;;;15.50;61.40;;;;;;5054497;28;20637;-63
2024/03/13 06:46:09;;;;;;;1.48;1.38;;;15.50;61.40;;;;;;5053651;28;20175;-63
2024/03/13 06:48:35;;;;;;;1.80;1.70;;;15.50;61.60;;;;;;5054385;28;20191;-62
2024/03/13 06:51:08;;;;;;;2.05;1.85;;;15.50;61.40;;;;;;5054125;28;20167;-61
2024/03/13 06:53:34;;;;;;;1.83;1.73;;;15.50;61.50;;;;;;5053859;28;20178;-62
2024/03/13 06:56:00;;;;;;;1.77;1.67;;;15.60;61.80;;;;;;5054196;28;20548;-64
2024/03/13 06:58:27;;;;;;;1.73;1.63;;;15.60;62.60;;;;;;5053696;28;20688;-63
2024/03/13 07:00:53;;;;;;;1.80;1.70;;;15.70;61.80;;;;;;5053644;28;20167;-63
2024/03/13 07:03:18;;;;;;;1.50;1.40;;;15.80;61.70;;;;;;5053741;28;20187;-63
2024/03/13 07:05:44;;;;;;;1.60;1.50;;;15.90;61.50;;;;;;5053362;28;20711;-63
2024/03/13 07:08:12;;;;;;;1.52;1.42;;;16.10;61.30;;;;;;5053751;28;20544;-64
2024/03/13 07:10:38;;;;;;;1.83;1.73;;;16.20;61.00;;;;;;5054045;28;20171;-62
2024/03/13 07:13:03;;;;;;;1.35;1.25;;;16.40;60.70;;;;;;5053203;28;20190;-62
2024/03/13 07:15:29;;;;;;;1.40;1.30;;;16.60;60.30;;;;;;5053451;28;20185;-62
2024/03/13 07:17:54;;;;;;;1.23;1.17;;;16.70;60.10;;;;;;5053638;28;20219;-63
2024/03/13 07:20:20;;;;;;;2.15;1.63;;;16.80;59.80;;;;;;5052761;28;20185;-64
2024/03/13 07:22:45;;;;;;;1.33;1.23;;;16.90;59.70;;;;;;5053300;28;20258;-63
2024/03/13 07:25:12;;;;;;;1.30;1.20;;;17.10;59.30;;;;;;5053466;28;20179;-62
2024/03/13 07:27:37;;;;;;;1.50;1.40;;;17.20;59.20;;;;;;5053063;28;20236;-62
2024/03/13 07:30:05;;;;;;;1.33;1.23;;;17.20;59.00;;;;;;5053486;28;20198;-63
2024/03/13 07:32:32;;;;;;;1.40;1.30;;;17.30;58.90;;;;;;5053187;28;20171;-62
2024/03/13 07:34:58;;;;;;;1.10;1.10;;;17.30;58.80;;;;;;5052644;28;20183;-63
2024/03/13 07:37:25;;;;;;;0.85;0.85;;;17.40;58.70;;;;;;5053292;28;20221;-63
2024/03/13 07:39:50;;;;;;;0.90;0.90;;;17.30;58.60;;;;;;5053198;28;20600;-63
2024/03/13 07:42:16;;;;;;;1.25;1.15;;;17.40;58.70;;;;;;5052425;28;20182;-64
2024/03/13 07:44:41;;;;;;;1.10;1.00;;;17.40;58.70;;;;;;5053459;28;20171;-62
2024/03/13 07:47:08;;;;;;;1.30;1.10;;;17.40;58.60;;;;;;5053177;28;20266;-63
2024/03/13 07:49:34;;;;;;;1.05;0.98;;;17.50;58.50;;;;;;5052497;28;20206;-62
2024/03/13 07:52:01;;;;;;;1.13;1.13;;;17.40;58.50;;;;;;5052970;28;20183;-62
2024/03/13 07:54:28;;;;;;;1.20;1.10;;;17.40;58.50;;;;;;5052914;28;20216;-63
2024/03/13 07:56:56;;;;;;;1.60;1.20;;;17.40;58.60;;;;;;5052192;28;20661;-63
2024/03/13 07:59:28;;;;;;;1.10;1.02;;;17.40;58.60;;;;;;5052758;28;20216;-63
2024/03/13 08:01:53;;;;;;;0.98;0.98;;;17.40;58.80;;;;;;5052160;28;20179;-63
2024/03/13 08:04:21;;;;;;;1.33;1.23;;;17.30;58.90;;;;;;5052596;28;20171;-63
2024/03/13 08:06:47;;;;;;;1.25;1.10;;;17.40;58.90;;;;;;5053051;28;20218;-64
2024/03/13 08:09:12;;;;;;;1.20;1.10;;;17.50;58.70;;;;;;5051974;28;20719;-64
2024/03/13 08:11:38;;;;;;;0.90;0.88;;;17.50;58.70;;;;;;5052874;28;20633;-63
2024/03/13 08:14:03;;;;;;;0.80;0.80;;;17.40;58.60;;;;;;5052665;28;20517;-63
2024/03/13 08:16:29;;;;;;;1.05;0.93;;;17.40;58.80;;;;;;5051593;28;20305;-63
2024/03/13 08:18:54;;;;;;;0.95;0.93;;;17.50;58.80;;;;;;5052744;28;20258;-63
2024/03/13 08:21:20;;;;;;;0.93;0.90;;;17.40;58.80;;;;;;5052371;28;20257;-63
2024/03/13 08:23:46;;;;;;;1.15;1.08;;;17.40;58.80;;;;;;5051642;28;20641;-63
2024/03/13 08:26:11;;;;;;;1.20;1.10;;;17.50;58.70;;;;;;5052104;28;20175;-63
2024/03/13 08:28:43;;;;;;;1.00;1.00;;;17.50;58.50;;;;;;5052421;28;20182;-62
2024/03/13 08:31:10;;;;;;;0.80;0.80;;;17.60;58.50;;;;;;5051351;28;20638;-63
2024/03/13 08:33:35;;;;;;;1.17;1.00;;;17.50;58.40;;;;;;5050811;28;20187;-63
2024/03/13 08:36:02;;;;;;;0.85;0.85;;;17.60;58.40;;;;;;5052055;28;20513;-63
2024/03/13 08:38:28;;;;;;;1.23;1.13;;;17.70;58.50;;;;;;5051338;28;20215;-63
2024/03/13 08:40:54;;;;;;;1.00;1.00;;;17.60;58.40;;;;;;5052082;28;20798;-63
2024/03/13 08:43:20;;;;;;;1.00;1.00;;;17.60;58.50;;;;;;5051863;28;20233;-62
2024/03/13 08:45:46;;;;;;;0.93;0.93;;;17.50;58.50;;;;;;5051455;28;20171;-62
2024/03/13 08:48:11;;;;;;;1.00;1.00;;;17.50;58.60;;;;;;5051945;28;20262;-62
2024/03/13 08:50:37;;;;;;;0.80;0.80;;;17.50;58.70;;;;;;5052271;28;20194;-61
2024/03/13 08:53:03;;;;;;;0.98;0.93;;;17.40;58.80;;;;;;5051391;28;20282;-62
2024/03/13 08:55:34;;;;;;;0.90;0.90;;;17.30;59.00;;;;;;5051745;28;20179;-62
2024/03/13 08:58:00;;;;;;;1.10;1.08;;;17.30;59.10;;;;;;5051910;28;20222;-63
2024/03/13 09:00:26;;;;;;;1.50;1.10;;;17.30;59.10;;;;;;5051013;28;20203;-63
2024/03/13 09:02:55;;;;;;;1.23;1.05;;;17.30;59.20;;;;;;5051581;28;20214;-62
2024/03/13 09:05:21;;;;;;;0.82;0.82;;;17.20;59.20;;;;;;5051087;28;20171;-63
2024/03/13 09:07:47;;;;;;;0.98;0.90;;;17.20;59.30;;;;;;5052016;28;20645;-63
2024/03/13 09:10:12;;;;;;;1.10;1.00;;;17.20;59.40;;;;;;5051272;28;20221;-63
2024/03/13 09:12:41;;;;;;;0.98;0.98;;;17.10;59.40;;;;;;5051190;28;20179;-62
2024/03/13 09:15:09;;;;;;;1.08;1.00;;;17.10;59.50;;;;;;5051613;28;20232;-61
2024/03/13 09:17:35;;;;;;;1.17;1.08;;;17.10;59.60;;;;;;5051946;28;20211;-62
2024/03/13 09:20:01;;;;;;;1.10;1.00;;;17.00;59.60;;;;;;5050984;28;20175;-63
2024/03/13 09:22:27;;;;;;;1.00;1.00;;;17.00;59.70;;;;;;5051362;28;20224;-62
2024/03/13 09:24:53;;;;;;;1.00;1.00;;;17.00;59.80;;;;;;5051633;28;20178;-62
2024/03/13 09:27:19;;;;;;;0.93;0.93;;;17.00;59.90;;;;;;5050645;28;20195;-62
2024/03/13 09:29:44;;;;;;;1.13;1.10;;;17.00;60.60;;;;;;5051708;28;20175;-62
2024/03/13 09:32:10;;;;;;;1.20;1.10;;;17.00;59.80;;;;;;5051450;28;20214;-62
2024/03/13 09:34:35;;;;;;;1.10;0.98;;;17.00;59.80;;;;;;5051038;28;20194;-63
2024/03/13 09:37:04;;;;;;;1.13;1.00;;;16.90;59.80;;;;;;5051508;28;20593;-63
2024/03/13 09:39:31;;;;;;;0.93;0.93;;;17.00;59.90;;;;;;5051109;28;20219;-63
2024/03/13 09:41:59;;;;;;;1.00;1.00;;;16.90;59.90;;;;;;5050793;28;20262;-63
2024/03/13 09:44:26;;;;;;;0.93;0.73;;;16.90;59.90;;;;;;5051429;28;20185;-63
2024/03/13 09:46:53;;;;;;;0.93;0.93;;;16.90;60.00;;;;;;5054768;28;20532;-62
2024/03/13 09:49:18;;;;;;;1.35;0.90;;;16.90;60.00;;;;;;5053278;28;20622;-63
2024/03/13 09:51:45;;;;;;;1.17;0.98;;;16.90;60.10;;;;;;5054186;28;20296;-62
2024/03/13 09:54:11;;;;;;;0.93;0.93;;;16.90;60.10;;;;;;5053738;28;20175;-62
2024/03/13 09:56:38;;;;;;;0.98;0.98;;;17.00;60.90;;;;;;5053301;28;20244;-62
2024/03/13 09:59:05;;;;;;;1.02;1.00;;;17.00;60.00;;;;;;5054363;28;20552;-63
2024/03/13 10:01:35;;;;;;;0.80;0.80;;;17.00;60.00;;;;;;5054585;28;20274;-62
2024/03/13 10:04:10;;;;;;;0.85;0.85;;;17.00;60.00;;;;;;5055298;28;20198;-62
2024/03/13 10:06:35;;;;;;;1.10;1.10;;;16.90;60.90;;;;;;5054383;28;20185;-62
2024/03/13 10:09:01;;;;;;;1.27;1.17;;;16.90;60.10;;;;;;5036602;28;20167;-62
2024/03/13 10:11:27;;;;;;;1.10;1.10;;;16.90;60.20;;;;;;5037073;28;20241;-63
2024/03/13 10:13:52;;;;;;;0.80;0.80;;;16.80;60.30;;;;;;5037055;28;20183;-62
2024/03/13 10:16:22;;;;;;;0.75;0.75;;;16.80;60.40;;;;;;5052795;28;20183;-62
2024/03/13 10:18:50;;;;;;;1.00;1.00;;;16.80;60.40;;;;;;5053739;28;20186;-62
2024/03/13 10:21:26;;;;;;;1.00;1.00;;;16.80;60.50;;;;;;5053170;28;20175;-62
2024/03/13 10:23:53;;;;;;;0.98;0.95;;;16.80;60.50;;;;;;5052647;28;20185;-62
2024/03/13 10:26:20;;;;;;;1.40;0.95;;;16.80;60.50;;;;;;5054703;28;20179;-63
2024/03/13 10:28:47;;;;;;;0.80;0.80;;;16.80;60.50;;;;;;5053695;28;20179;-62
2024/03/13 10:31:14;;;;;;;1.50;1.40;;;16.80;60.50;;;;;;5052560;28;20175;-62
2024/03/13 10:33:39;;;;;;;1.20;1.00;;;16.80;60.40;;;;;;5053476;28;20175;-63
2024/03/13 10:36:05;;;;;;;1.00;1.00;;;16.80;60.50;;;;;;5053289;28;20194;-63
2024/03/13 10:38:33;;;;;;;1.05;1.05;;;16.80;60.50;;;;;;5052472;28;20218;-63
2024/03/13 10:41:03;;;;;;;1.08;0.98;;;16.70;60.50;;;;;;5036851;28;20353;-63
2024/03/13 10:43:32;;;;;;;1.38;1.10;;;16.70;61.40;;;;;;5054344;28;20190;-62
2024/03/13 10:45:57;;;;;;;1.40;1.30;;;16.70;60.60;;;;;;5054081;28;20179;-63
2024/03/13 10:48:23;;;;;;;1.40;1.30;;;16.70;60.80;;;;;;5054130;28;20167;-62
2024/03/13 10:50:49;;;;;;;1.17;1.08;;;16.70;60.80;;;;;;5053533;28;20533;-62
2024/03/13 10:53:15;;;;;;;1.40;1.30;;;16.60;60.80;;;;;;5053834;28;20174;-63
2024/03/13 10:55:41;;;;;;;1.63;1.15;;;16.60;60.90;;;;;;5054203;28;20187;-63
2024/03/13 10:58:17;;;;;;;1.75;1.30;;;16.60;60.90;;;;;;5051322;28;20221;-64
2024/03/13 11:00:44;;;;;;;1.23;1.13;;;16.60;60.90;;;;;;5053140;28;20278;-63
2024/03/13 11:03:12;;;;;;;1.60;1.50;;;16.60;61.00;;;;;;5053668;28;20187;-62
2024/03/13 11:05:38;;;;;;;1.67;1.50;;;16.60;61.00;;;;;;5052403;28;20237;-62
2024/03/13 11:08:05;;;;;;;3.28;1.83;;;16.50;61.10;;;;;;5054151;28;20179;-63
2024/03/13 11:10:31;;;;;;;2.03;1.90;;;16.50;61.10;;;;;;5036033;28;20563;-62
2024/03/13 11:12:56;;;;;;;1.42;1.33;;;16.60;61.20;;;;;;5053206;28;20175;-62
2024/03/13 11:15:28;;;;;;;1.73;1.63;;;16.50;61.10;;;;;;5052379;28;20171;-62
2024/03/13 11:17:56;;;;;;;1.83;1.60;;;16.50;61.10;;;;;;5036244;28;20249;-63
2024/03/13 11:20:23;;;;;;;2.00;1.58;;;16.50;61.10;;;;;;5051773;28;20175;-62
2024/03/13 11:22:54;;;;;;;1.80;1.60;;;16.50;61.10;;;;;;5053924;28;20258;-63
2024/03/13 11:25:20;;;;;;;1.70;1.60;;;16.50;61.10;;;;;;5036140;28;20547;-62
2024/03/13 11:27:55;;;;;;;1.95;1.75;;;16.50;61.10;;;;;;5051830;28;20183;-62
2024/03/13 11:30:21;;;;;;;2.20;2.00;;;16.50;61.10;;;;;;5052086;28;20702;-63
2024/03/13 11:32:50;;;;;;;1.95;1.73;;;16.50;61.10;;;;;;5053286;28;20187;-62
2024/03/13 11:35:16;;;;;;;1.88;1.77;;;16.50;61.10;;;;;;5052241;28;20203;-63
2024/03/13 11:37:44;;;;;;;1.80;1.70;;;16.50;61.10;;;;;;5053561;28;20218;-63
2024/03/13 11:40:10;;;;;;;1.77;1.67;;;16.50;61.10;;;;;;5052252;28;20257;-63
2024/03/13 11:42:36;;;;;;;2.65;2.00;;;16.50;61.20;;;;;;5052261;28;20226;-63
2024/03/13 11:45:15;;;;;;;2.58;2.03;;;16.50;61.20;;;;;;5053263;28;20228;-61
2024/03/13 11:47:47;;;;;;;2.25;2.10;;;16.40;61.10;;;;;;5052904;28;20186;-62
2024/03/13 11:50:13;;;;;;;2.30;1.90;;;16.50;61.20;;;;;;5052847;28;20179;-62
2024/03/13 11:52:59;;;;;;;2.60;1.90;;;16.40;61.10;;;;;;5053225;28;20187;-62
2024/03/13 11:55:28;;;;;;;3.15;2.13;;;16.50;61.20;;;;;;5050993;28;20186;-63
2024/03/13 11:58:19;;;;;;;2.00;1.80;;;16.50;61.20;;;;;;5053109;28;20215;-63
2024/03/13 12:00:48;;;;;;;2.58;1.98;;;16.50;61.30;;;;;;5052959;28;20668;-63
2024/03/13 12:03:16;;;;;;;1.83;1.73;;;16.40;61.20;;;;;;5051786;28;20622;-63
2024/03/13 12:05:42;;;;;;;1.90;1.80;;;16.40;61.20;;;;;;5052939;28;20182;-62
2024/03/13 12:08:20;;;;;;;2.60;1.98;;;16.40;61.20;;;;;;5051996;28;20171;-63
2024/03/13 12:10:49;;;;;;;2.70;2.20;;;16.40;61.20;;;;;;5052936;28;20217;-63
2024/03/13 12:13:15;;;;;;;3.35;2.47;;;16.40;61.20;;;;;;5052530;28;20181;-63
2024/03/13 12:15:42;;;;;;;2.38;2.03;;;16.50;61.40;;;;;;5052110;28;20279;-62
2024/03/13 12:18:11;;;;;;;2.28;2.08;;;16.40;61.20;;;;;;5052283;28;20236;-62
2024/03/13 12:20:39;;;;;;;2.55;1.80;;;16.40;61.20;;;;;;5052910;28;20175;-62
2024/03/13 12:23:07;;;;;;;1.90;1.75;;;16.40;61.30;;;;;;5051654;28;20186;-63
2024/03/13 12:25:33;;;;;;;2.20;2.00;;;16.40;61.30;;;;;;5052512;28;20206;-63
2024/03/13 12:27:59;;;;;;;2.28;2.08;;;16.40;61.40;;;;;;5052341;28;20211;-62
2024/03/13 12:30:25;;;;;;;2.65;2.10;;;16.40;61.30;;;;;;5051451;28;20229;-62
2024/03/13 12:32:53;;;;;;;2.58;2.35;;;16.40;61.30;;;;;;5052273;28;20186;-63
2024/03/13 12:35:18;;;;;;;2.80;2.60;;;16.40;61.20;;;;;;5052211;28;20175;-63
2024/03/13 12:37:49;;;;;;;2.63;2.42;;;16.40;61.30;;;;;;5051708;28;20214;-63
2024/03/13 12:40:16;;;;;;;3.67;2.55;;;16.40;61.30;;;;;;5051890;28;20280;-63
2024/03/13 12:42:41;;;;;;;2.83;2.63;;;16.40;61.20;;;;;;5052362;28;20646;-62
2024/03/13 12:45:08;;;;;;;2.95;2.67;;;16.40;61.20;;;;;;5051551;28;20629;-62
2024/03/13 12:47:40;;;;;;;2.67;2.47;;;16.40;61.20;;;;;;5052028;28;20741;-62
2024/03/13 12:50:08;;;;;;;3.25;2.70;;;16.40;61.20;;;;;;5052292;28;20182;-62
2024/03/13 12:52:35;;;;;;;2.50;2.30;;;16.40;61.20;;;;;;5050675;28;20511;-62
2024/03/13 12:55:03;;;;;;;2.90;2.42;;;16.40;61.10;;;;;;5052118;28;20281;-62
2024/03/13 12:57:32;;;;;;;2.85;2.60;;;16.50;61.20;;;;;;5050978;28;20257;-63
2024/03/13 12:59:58;;;;;;;3.05;2.72;;;16.50;61.10;;;;;;5050688;28;20171;-63
2024/03/13 13:02:23;;;;;;;2.92;2.70;;;16.50;61.10;;;;;;5051931;28;20308;-62
2024/03/13 13:04:49;;;;;;;2.70;2.50;;;16.50;61.10;;;;;;5051176;28;20660;-62